createdAt,value
2018-04-18T00:00:26.800Z,14.53
2018-04-18T00:02:57.805Z,14.49
2018-04-18T00:05:28.844Z,14.48
2018-04-18T00:07:59.893Z,14.40
2018-04-18T00:10:30.935Z,14.32
2018-04-18T00:13:01.954Z,14.28
2018-04-18T00:15:32.964Z,14.26
2018-04-18T00:18:03.998Z,14.22
2018-04-18T00:20:35.006Z,14.17
2018-04-18T00:23:06.058Z,14.16
2018-04-18T00:25:37.102Z,14.17
2018-04-18T00:28:08.153Z,14.14
2018-04-18T00:30:39.165Z,14.07
2018-04-18T00:33:10.208Z,14.02
2018-04-18T00:35:41.231Z,13.96
2018-04-18T00:38:12.304Z,13.90
2018-04-18T00:40:43.314Z,13.87
2018-04-18T00:43:14.319Z,13.87
2018-04-18T00:45:45.310Z,13.88
2018-04-18T00:48:16.385Z,13.84
2018-04-18T00:50:47.417Z,13.82
2018-04-18T00:53:18.463Z,13.78
2018-04-18T00:55:49.522Z,13.72
2018-04-18T00:58:20.529Z,13.69
2018-04-18T01:00:51.619Z,13.68
2018-04-18T01:03:22.625Z,13.65
2018-04-18T01:05:53.668Z,13.64
2018-04-18T01:08:24.684Z,13.62
2018-04-18T01:10:55.739Z,13.61
2018-04-18T01:13:26.788Z,13.59
2018-04-18T01:15:57.786Z,13.57
2018-04-18T01:18:28.822Z,13.52
2018-04-18T01:20:59.829Z,13.49
2018-04-18T01:23:30.844Z,13.49
2018-04-18T01:26:01.842Z,13.46
2018-04-18T01:28:32.851Z,13.43
2018-04-18T01:31:03.924Z,13.41
2018-04-18T01:33:34.934Z,13.38
2018-04-18T01:36:05.967Z,13.33
2018-04-18T01:38:37.077Z,13.29
2018-04-18T01:41:08.106Z,13.27
2018-04-18T01:43:39.133Z,13.25
2018-04-18T01:46:10.132Z,13.23
2018-04-18T01:48:41.146Z,13.20
2018-04-18T01:51:12.183Z,13.16
2018-04-18T01:53:43.214Z,13.12
2018-04-18T01:56:14.233Z,13.09
2018-04-18T01:58:45.295Z,13.08
2018-04-18T02:01:16.353Z,13.05
2018-04-18T02:03:47.388Z,13.04
2018-04-18T02:06:18.410Z,13.04
2018-04-18T02:08:49.432Z,13.03
2018-04-18T02:11:20.482Z,13.04
2018-04-18T02:13:51.516Z,13.02
2018-04-18T02:16:23.190Z,12.99
2018-04-18T02:18:54.219Z,12.98
2018-04-18T02:21:25.224Z,12.97
2018-04-18T02:23:56.284Z,12.96
2018-04-18T02:26:27.276Z,12.96
2018-04-18T02:28:58.275Z,12.96
2018-04-18T02:31:29.599Z,12.96
2018-04-18T02:34:00.651Z,12.93
2018-04-18T02:36:31.666Z,12.92
2018-04-18T02:39:02.765Z,12.89
2018-04-18T02:41:33.807Z,12.85
2018-04-18T02:44:04.856Z,12.85
2018-04-18T02:46:35.868Z,12.79
2018-04-18T02:49:06.937Z,12.77
2018-04-18T02:51:37.973Z,12.76
2018-04-18T02:54:09.005Z,12.73
2018-04-18T02:56:40.030Z,12.68
2018-04-18T02:59:10.995Z,12.64
2018-04-18T03:01:42.005Z,12.61
2018-04-18T03:04:13.072Z,12.61
2018-04-18T03:06:44.120Z,12.61
2018-04-18T03:09:15.170Z,12.60
2018-04-18T03:11:46.199Z,12.56
2018-04-18T03:14:17.210Z,12.52
2018-04-18T03:16:48.250Z,12.47
2018-04-18T03:19:19.212Z,12.43
2018-04-18T03:21:50.199Z,12.45
2018-04-18T03:24:21.207Z,12.44
2018-04-18T03:26:52.539Z,12.45
2018-04-18T03:29:23.560Z,12.43
2018-04-18T03:31:54.607Z,12.41
2018-04-18T03:34:25.641Z,12.40
2018-04-18T03:36:56.624Z,12.40
2018-04-18T03:39:27.660Z,12.38
2018-04-18T03:41:58.663Z,12.35
2018-04-18T03:44:29.697Z,12.34
2018-04-18T03:47:00.687Z,12.34
2018-04-18T03:49:31.675Z,12.33
2018-04-18T03:52:02.744Z,12.32
2018-04-18T03:54:33.794Z,12.30
2018-04-18T03:57:04.830Z,12.28
2018-04-18T03:59:35.871Z,12.26
2018-04-18T04:02:06.905Z,12.29
2018-04-18T04:04:37.921Z,12.30
2018-04-18T04:07:08.922Z,12.33
2018-04-18T04:09:39.901Z,12.32
2018-04-18T04:12:10.865Z,12.32
2018-04-18T04:14:41.880Z,12.33
2018-04-18T04:17:25.248Z,12.34
2018-04-18T04:20:08.537Z,12.29
2018-04-18T04:22:51.729Z,12.24
2018-04-18T04:25:23.245Z,12.21
2018-04-18T04:27:54.232Z,12.21
2018-04-18T04:30:26.070Z,12.26
2018-04-18T04:32:57.137Z,12.29
2018-04-18T04:35:28.122Z,12.35
2018-04-18T04:37:59.215Z,12.42
2018-04-18T04:40:30.210Z,12.48
2018-04-18T04:43:01.246Z,12.54
2018-04-18T04:45:32.281Z,12.57
2018-04-18T04:48:03.324Z,12.64
2018-04-18T04:50:34.349Z,12.74
2018-04-18T04:53:05.352Z,12.81
2018-04-18T04:55:36.324Z,12.88
2018-04-18T04:58:07.366Z,12.95
2018-04-18T05:00:38.383Z,13.04
2018-04-18T05:03:09.384Z,13.06
2018-04-18T05:05:40.401Z,13.13
2018-04-18T05:08:11.391Z,13.29
2018-04-18T05:10:42.433Z,13.39
2018-04-18T05:13:13.450Z,13.47
2018-04-18T05:15:44.466Z,13.48
2018-04-18T05:18:15.562Z,13.56
2018-04-18T05:20:46.595Z,13.67
2018-04-18T05:23:17.634Z,13.73
2018-04-18T05:25:48.708Z,13.86
2018-04-18T05:28:19.763Z,14.04
2018-04-18T05:30:50.802Z,14.18
2018-04-18T05:33:21.826Z,14.33
2018-04-18T05:35:52.870Z,14.43
2018-04-18T05:38:23.979Z,14.55
2018-04-18T05:40:55.062Z,14.63
2018-04-18T05:43:26.093Z,14.72
2018-04-18T05:45:57.045Z,14.83
2018-04-18T05:48:28.039Z,15.01
2018-04-18T05:50:59.067Z,15.18
2018-04-18T05:53:30.092Z,15.38
2018-04-18T05:56:01.126Z,15.51
2018-04-18T05:58:32.149Z,15.64
2018-04-18T06:01:03.142Z,15.71
2018-04-18T06:03:34.198Z,15.88
2018-04-18T06:06:05.166Z,16.01
2018-04-18T06:08:36.194Z,16.14
2018-04-18T06:11:07.167Z,16.29
2018-04-18T06:13:38.238Z,16.22
2018-04-18T06:16:09.225Z,16.35
2018-04-18T06:18:40.225Z,16.51
2018-04-18T06:21:11.241Z,16.70
2018-04-18T06:23:42.265Z,16.82
2018-04-18T06:26:13.241Z,16.94
2018-04-18T06:28:44.211Z,17.23
2018-04-18T06:31:15.277Z,17.51
2018-04-18T06:33:46.270Z,17.76
2018-04-18T06:36:17.293Z,18.03
2018-04-18T06:38:48.276Z,18.26
2018-04-18T06:41:19.339Z,18.81
2018-04-18T06:43:50.318Z,24.06
2018-04-18T06:46:21.308Z,29.46
2018-04-18T06:48:52.317Z,33.13
2018-04-18T06:51:23.325Z,35.85
2018-04-18T06:53:54.374Z,37.15
2018-04-18T06:56:25.389Z,38.29
2018-04-18T06:58:56.359Z,39.36
2018-04-18T07:01:27.407Z,40.68
2018-04-18T07:03:58.352Z,40.96
2018-04-18T07:06:29.416Z,41.68
2018-04-18T07:09:00.438Z,42.22
2018-04-18T07:11:31.501Z,42.43
2018-04-18T07:14:02.537Z,43.35
2018-04-18T07:16:33.584Z,45.07
2018-04-18T07:19:04.588Z,46.49
2018-04-18T07:21:35.868Z,47.58
2018-04-18T07:24:06.915Z,47.72
2018-04-18T07:26:37.942Z,48.49
2018-04-18T07:29:09.050Z,49.33
2018-04-18T07:31:40.064Z,50.00
2018-04-18T07:34:11.106Z,50.68
2018-04-18T07:36:42.114Z,50.97
2018-04-18T07:39:13.113Z,51.56
2018-04-18T07:41:44.104Z,51.66
2018-04-18T07:44:15.095Z,51.73
2018-04-18T07:46:46.115Z,51.27
2018-04-18T07:49:24.112Z,51.37
2018-04-18T07:51:55.113Z,50.45
2018-04-18T07:54:26.133Z,50.93
2018-04-18T07:56:57.166Z,51.16
2018-04-18T07:59:28.185Z,51.72
2018-04-18T08:01:59.230Z,52.44
2018-04-18T08:04:30.243Z,52.89
2018-04-18T08:07:01.260Z,52.89
2018-04-18T08:09:32.241Z,52.86
2018-04-18T08:12:03.316Z,53.04
2018-04-18T08:14:34.322Z,53.73
2018-04-18T08:17:05.389Z,53.95
2018-04-18T08:19:36.469Z,54.41
2018-04-18T08:22:07.548Z,55.04
2018-04-18T08:24:38.593Z,55.30
2018-04-18T08:27:09.631Z,55.27
2018-04-18T08:29:40.645Z,54.84
2018-04-18T08:32:11.670Z,54.99
2018-04-18T08:34:42.668Z,55.09
2018-04-18T08:37:13.694Z,54.87
2018-04-18T08:39:44.667Z,54.83
2018-04-18T08:42:15.652Z,54.91
2018-04-18T08:44:46.678Z,55.15
2018-04-18T08:47:17.711Z,55.01
2018-04-18T08:49:48.844Z,55.44
2018-04-18T08:52:19.846Z,55.08
2018-04-18T08:54:50.913Z,54.73
2018-04-18T08:57:22.006Z,54.81
2018-04-18T08:59:53.042Z,54.77
2018-04-18T09:02:24.032Z,55.02
2018-04-18T09:04:55.025Z,54.60
2018-04-18T09:07:26.101Z,54.39
2018-04-18T09:09:57.096Z,54.54
2018-04-18T09:12:28.090Z,54.89
2018-04-18T09:14:59.082Z,55.06
2018-04-18T09:17:30.073Z,54.88
2018-04-18T09:20:01.104Z,54.49
2018-04-18T09:22:32.183Z,53.35
2018-04-18T09:25:03.222Z,52.25
2018-04-18T09:27:34.223Z,52.64
2018-04-18T09:30:05.303Z,52.48
2018-04-18T09:32:36.286Z,52.72
2018-04-18T09:35:07.327Z,52.82
2018-04-18T09:37:38.445Z,53.11
2018-04-18T09:40:09.472Z,52.86
2018-04-18T09:42:40.563Z,51.94
2018-04-18T09:45:11.561Z,51.81
2018-04-18T09:47:42.620Z,51.48
2018-04-18T09:50:13.624Z,50.02
2018-04-18T09:52:44.630Z,50.14
2018-04-18T09:55:15.635Z,51.23
2018-04-18T09:57:46.680Z,50.89
2018-04-18T10:00:17.756Z,51.14
2018-04-18T10:02:54.785Z,50.60
2018-04-18T10:05:25.830Z,50.40
2018-04-18T10:07:56.824Z,49.07
2018-04-18T10:10:27.898Z,47.83
2018-04-18T10:12:58.858Z,46.75
2018-04-18T10:15:29.906Z,46.98
2018-04-18T10:18:00.947Z,47.37
2018-04-18T10:20:31.955Z,46.59
2018-04-18T10:23:02.978Z,45.47
2018-04-18T10:25:34.066Z,45.57
2018-04-18T10:28:05.134Z,46.13
2018-04-18T10:30:36.142Z,46.18
2018-04-18T10:33:07.189Z,45.58
2018-04-18T10:35:38.164Z,45.01
2018-04-18T10:38:09.187Z,45.54
2018-04-18T10:40:40.198Z,44.79
2018-04-18T10:43:11.258Z,43.36
2018-04-18T10:45:42.261Z,42.66
2018-04-18T10:48:13.306Z,43.52
2018-04-18T10:50:44.269Z,44.42
2018-04-18T10:53:15.305Z,45.11
2018-04-18T10:55:46.312Z,44.81
2018-04-18T10:58:17.332Z,44.99
2018-04-18T11:00:48.356Z,44.59
2018-04-18T11:03:19.382Z,43.74
2018-04-18T11:05:50.441Z,42.25
2018-04-18T11:08:21.504Z,40.22
2018-04-18T11:10:52.490Z,38.15
2018-04-18T11:13:23.545Z,35.77
2018-04-18T11:15:54.575Z,34.18
2018-04-18T11:18:25.527Z,33.01
2018-04-18T11:20:56.483Z,32.24
2018-04-18T11:23:27.528Z,31.72
2018-04-18T11:25:58.506Z,31.41
2018-04-18T11:28:29.532Z,30.74
2018-04-18T11:31:00.539Z,29.75
2018-04-18T11:33:31.534Z,29.57
2018-04-18T11:36:02.541Z,29.68
2018-04-18T11:38:33.559Z,29.91
2018-04-18T11:41:04.567Z,29.96
2018-04-18T11:43:35.574Z,29.53
2018-04-18T11:46:06.560Z,28.67
2018-04-18T11:48:37.561Z,28.45
2018-04-18T11:51:08.594Z,28.44
2018-04-18T11:53:39.648Z,28.34
2018-04-18T11:56:10.653Z,28.47
2018-04-18T11:58:41.692Z,28.43
2018-04-18T12:01:12.731Z,28.53
2018-04-18T12:03:43.772Z,28.60
2018-04-18T12:06:14.775Z,28.55
2018-04-18T12:08:45.755Z,28.68
2018-04-18T12:11:16.756Z,28.89
2018-04-18T12:13:47.801Z,28.57
2018-04-18T12:16:18.843Z,28.36
2018-04-18T12:18:49.816Z,28.22
2018-04-18T12:21:20.825Z,27.90
2018-04-18T12:23:51.823Z,27.96
2018-04-18T12:26:22.831Z,28.27
2018-04-18T12:28:53.930Z,28.38
2018-04-18T12:31:24.952Z,28.34
2018-04-18T12:33:55.974Z,28.43
2018-04-18T12:36:26.950Z,28.41
2018-04-18T12:38:57.945Z,28.76
2018-04-18T12:41:28.988Z,28.62
2018-04-18T12:44:00.020Z,28.73
2018-04-18T12:46:31.019Z,28.94
2018-04-18T12:49:02.122Z,28.90
2018-04-18T12:51:33.080Z,29.22
2018-04-18T12:54:04.120Z,29.09
2018-04-18T12:56:35.156Z,29.40
2018-04-18T12:59:06.148Z,29.69
2018-04-18T13:01:37.178Z,29.65
2018-04-18T13:04:08.186Z,29.74
2018-04-18T13:06:39.228Z,29.67
2018-04-18T13:09:10.216Z,29.87
2018-04-18T13:11:41.231Z,30.24
2018-04-18T13:14:12.238Z,30.48
2018-04-18T13:16:43.238Z,30.21
2018-04-18T13:19:14.238Z,30.35
2018-04-18T13:21:45.256Z,30.12
2018-04-18T13:24:16.300Z,29.73
2018-04-18T13:26:47.291Z,29.11
2018-04-18T13:29:18.368Z,28.82
2018-04-18T13:31:49.457Z,28.85
2018-04-18T13:34:20.497Z,29.29
2018-04-18T13:36:51.553Z,29.56
2018-04-18T13:39:22.539Z,29.78
2018-04-18T13:41:53.539Z,29.57
2018-04-18T13:44:24.579Z,29.52
2018-04-18T13:46:55.581Z,29.70
2018-04-18T13:49:26.594Z,29.65
2018-04-18T13:51:57.636Z,30.15
2018-04-18T13:54:28.657Z,29.99
2018-04-18T13:56:59.706Z,29.85
2018-04-18T13:59:30.806Z,29.43
2018-04-18T14:02:01.835Z,29.61
2018-04-18T14:04:32.808Z,29.45
2018-04-18T14:07:03.852Z,29.40
2018-04-18T14:09:34.872Z,29.02
2018-04-18T14:12:05.889Z,29.03
2018-04-18T14:14:36.954Z,28.62
2018-04-18T14:17:07.996Z,28.56
2018-04-18T14:19:39.028Z,28.70
2018-04-18T14:22:10.127Z,29.00
2018-04-18T14:24:41.115Z,29.27
2018-04-18T14:27:12.148Z,29.25
2018-04-18T14:29:43.181Z,29.39
2018-04-18T14:32:14.187Z,29.58
2018-04-18T14:34:45.173Z,29.30
2018-04-18T14:37:16.170Z,29.17
2018-04-18T14:39:47.192Z,29.21
2018-04-18T14:42:18.247Z,29.43
2018-04-18T14:44:49.318Z,29.12
2018-04-18T14:47:20.380Z,29.23
2018-04-18T14:49:51.414Z,29.13
2018-04-18T14:52:22.443Z,28.92
2018-04-18T14:54:53.551Z,28.71
2018-04-18T14:57:24.532Z,28.86
2018-04-18T14:59:55.575Z,28.88
2018-04-18T15:02:26.645Z,28.60
2018-04-18T15:04:57.659Z,28.76
2018-04-18T15:07:28.623Z,28.59
2018-04-18T15:09:59.596Z,28.26
2018-04-18T15:12:30.566Z,28.19
2018-04-18T15:15:01.577Z,28.34
2018-04-18T15:17:32.626Z,28.32
2018-04-18T15:20:03.663Z,28.20
2018-04-18T15:22:34.672Z,28.12
2018-04-18T15:25:05.683Z,27.94
2018-04-18T15:27:36.679Z,27.70
2018-04-18T15:30:07.718Z,27.63
2018-04-18T15:32:38.775Z,27.49
2018-04-18T15:35:09.799Z,27.39
2018-04-18T15:37:40.864Z,27.39
2018-04-18T15:40:11.854Z,27.52
2018-04-18T15:42:42.889Z,27.49
2018-04-18T15:45:13.931Z,27.36
2018-04-18T15:47:44.947Z,27.39
2018-04-18T15:50:15.944Z,27.31
2018-04-18T15:52:47.004Z,27.12
2018-04-18T15:55:18.079Z,27.03
2018-04-18T15:57:49.066Z,27.10
2018-04-18T16:00:20.072Z,27.05
2018-04-18T16:02:51.214Z,27.00
2018-04-18T16:05:22.240Z,27.07
2018-04-18T16:07:53.278Z,27.03
2018-04-18T16:10:24.271Z,26.96
2018-04-18T16:12:55.216Z,26.95
2018-04-18T16:15:26.209Z,26.84
2018-04-18T16:17:57.185Z,26.67
2018-04-18T16:20:28.226Z,26.49
2018-04-18T16:22:59.262Z,26.27
2018-04-18T16:25:30.345Z,26.26
2018-04-18T16:28:01.383Z,26.29
2018-04-18T16:30:41.646Z,26.25
2018-04-18T16:33:12.690Z,26.16
2018-04-18T16:35:43.654Z,26.12
2018-04-18T16:38:14.642Z,26.06
2018-04-18T16:40:45.704Z,25.98
2018-04-18T16:43:16.682Z,25.91
2018-04-18T16:45:47.660Z,25.84
2018-04-18T16:48:18.685Z,25.77
2018-04-18T16:50:49.698Z,25.64
2018-04-18T16:53:20.713Z,25.58
2018-04-18T16:55:51.902Z,25.52
2018-04-18T16:58:22.918Z,25.37
2018-04-18T17:00:53.917Z,25.32
2018-04-18T17:03:24.916Z,25.23
2018-04-18T17:05:55.904Z,25.15
2018-04-18T17:08:27.028Z,25.07
2018-04-18T17:10:58.063Z,25.03
2018-04-18T17:13:29.168Z,24.98
2018-04-18T17:16:00.211Z,24.91
2018-04-18T17:18:31.314Z,24.86
2018-04-18T17:21:02.345Z,24.79
2018-04-18T17:23:33.400Z,24.70
2018-04-18T17:26:04.470Z,24.58
2018-04-18T17:28:35.476Z,24.50
2018-04-18T17:31:06.487Z,24.39
2018-04-18T17:33:37.485Z,24.27
2018-04-18T17:36:08.508Z,24.17
2018-04-18T17:38:39.552Z,24.11
2018-04-18T17:41:10.550Z,24.02
2018-04-18T17:43:41.555Z,23.94
2018-04-18T17:46:12.675Z,23.83
2018-04-18T17:48:43.767Z,23.72
2018-04-18T17:51:14.751Z,23.61
2018-04-18T17:53:45.767Z,23.50
2018-04-18T17:56:16.818Z,23.39
2018-04-18T17:58:47.849Z,23.28
2018-04-18T18:01:18.872Z,23.15
2018-04-18T18:03:49.882Z,23.03
2018-04-18T18:06:20.881Z,22.94
2018-04-18T18:08:51.889Z,22.83
2018-04-18T18:11:22.862Z,22.72
2018-04-18T18:13:53.869Z,22.58
2018-04-18T18:16:24.871Z,22.47
2018-04-18T18:18:55.869Z,22.38
2018-04-18T18:21:26.848Z,22.30
2018-04-18T18:23:57.870Z,22.21
2018-04-18T18:26:28.902Z,22.12
2018-04-18T18:28:59.944Z,22.06
2018-04-18T18:31:30.961Z,22.00
2018-04-18T18:34:01.973Z,21.93
2018-04-18T18:36:32.964Z,21.85
2018-04-18T18:39:04.018Z,21.78
2018-04-18T18:41:35.056Z,21.71
2018-04-18T18:44:06.135Z,21.63
2018-04-18T18:46:37.181Z,21.52
2018-04-18T18:49:08.168Z,21.46
2018-04-18T18:51:39.173Z,21.43
2018-04-18T18:54:10.214Z,21.37
2018-04-18T18:56:41.276Z,21.31
2018-04-18T18:59:12.268Z,21.26
2018-04-18T19:01:43.276Z,21.22
2018-04-18T19:04:14.313Z,21.19
2018-04-18T19:06:45.330Z,21.15
2018-04-18T19:09:16.382Z,21.09
2018-04-18T19:11:47.753Z,21.03
2018-04-18T19:14:18.746Z,20.97
2018-04-18T19:16:49.734Z,20.88
2018-04-18T19:19:20.732Z,20.84
2018-04-18T19:21:51.794Z,20.78
2018-04-18T19:24:22.810Z,20.73
2018-04-18T19:26:53.894Z,20.65
2018-04-18T19:29:24.951Z,20.58
2018-04-18T19:31:56.036Z,20.54
2018-04-18T19:34:27.018Z,20.49
2018-04-18T19:36:58.044Z,20.42
2018-04-18T19:39:29.092Z,20.37
2018-04-18T19:42:00.122Z,20.30
2018-04-18T19:44:31.213Z,20.23
2018-04-18T19:47:02.418Z,20.17
2018-04-18T19:49:33.386Z,20.14
2018-04-18T19:52:04.436Z,20.06
2018-04-18T19:54:35.446Z,20.03
2018-04-18T19:57:06.459Z,19.99
2018-04-18T19:59:37.460Z,19.91
2018-04-18T20:02:08.537Z,19.85
2018-04-18T20:04:39.535Z,19.82
2018-04-18T20:07:10.533Z,19.79
2018-04-18T20:09:41.519Z,19.78
2018-04-18T20:12:12.518Z,19.76
2018-04-18T20:14:43.555Z,19.73
2018-04-18T20:17:14.547Z,19.71
2018-04-18T20:19:45.615Z,19.68
2018-04-18T20:22:16.659Z,19.66
2018-04-18T20:24:47.694Z,19.62
2018-04-18T20:27:18.705Z,19.54
2018-04-18T20:29:49.708Z,19.49
2018-04-18T20:34:45.327Z,19.40
2018-04-18T20:37:16.349Z,19.34
2018-04-18T20:39:47.370Z,19.29
2018-04-18T20:42:18.361Z,19.25
2018-04-18T20:44:49.349Z,19.20
2018-04-18T20:47:20.364Z,19.17
2018-04-18T20:49:51.334Z,19.12
2018-04-18T20:52:22.326Z,19.08
2018-04-18T20:54:53.329Z,19.08
2018-04-18T20:57:24.360Z,19.08
2018-04-18T20:59:56.012Z,19.09
2018-04-18T21:02:41.944Z,19.07
2018-04-18T21:05:13.018Z,19.02
2018-04-18T21:07:44.036Z,19.00
2018-04-18T21:10:15.059Z,18.99
2018-04-18T21:12:46.024Z,19.01
2018-04-18T21:15:17.020Z,18.97
2018-04-18T21:17:48.043Z,18.91
2018-04-18T21:20:19.020Z,18.90
2018-04-18T21:22:49.991Z,18.86
2018-04-18T21:25:20.972Z,18.80
2018-04-18T21:27:52.004Z,18.73
2018-04-18T21:30:23.050Z,18.66
2018-04-18T21:32:54.020Z,18.59
2018-04-18T21:35:25.025Z,18.53
2018-04-18T21:37:56.010Z,18.46
2018-04-18T21:40:27.075Z,18.41
2018-04-18T21:42:58.040Z,18.35
2018-04-18T21:45:29.005Z,18.33
2018-04-18T21:47:59.964Z,18.31
2018-04-18T21:50:30.936Z,18.26
2018-04-18T21:53:01.868Z,18.22
2018-04-18T21:55:32.916Z,18.19
2018-04-18T21:58:03.886Z,18.13
2018-04-18T22:00:35.077Z,18.10
2018-04-18T22:03:06.075Z,18.08
2018-04-18T22:05:37.047Z,18.02
2018-04-18T22:08:08.081Z,17.98
2018-04-18T22:10:39.094Z,17.93
2018-04-18T22:13:10.088Z,17.80
2018-04-18T22:15:41.142Z,17.69
2018-04-18T22:18:12.167Z,17.63
2018-04-18T22:20:43.177Z,17.57
2018-04-18T22:23:14.205Z,17.53
2018-04-18T22:25:45.227Z,17.50
2018-04-18T22:28:16.340Z,17.46
2018-04-18T22:30:47.409Z,17.41
2018-04-18T22:33:18.450Z,17.36
2018-04-18T22:35:49.455Z,17.33
2018-04-18T22:38:20.435Z,17.29
2018-04-18T22:40:51.440Z,17.25
2018-04-18T22:43:22.449Z,17.23
2018-04-18T22:45:53.486Z,17.21
2018-04-18T22:48:24.463Z,17.16
2018-04-18T22:50:55.460Z,17.12
2018-04-18T22:53:26.444Z,17.08
2018-04-18T22:55:57.435Z,17.03
2018-04-18T22:58:28.478Z,17.01
2018-04-18T23:00:59.430Z,16.97
2018-04-18T23:03:30.452Z,16.94
2018-04-18T23:06:01.471Z,16.91
2018-04-18T23:08:32.434Z,16.89
2018-04-18T23:11:03.448Z,16.88
2018-04-18T23:13:34.420Z,16.85
2018-04-18T23:16:05.461Z,16.83
2018-04-18T23:18:36.468Z,16.82
2018-04-18T23:21:07.509Z,16.82
2018-04-18T23:23:38.453Z,16.82
2018-04-18T23:26:09.473Z,16.80
2018-04-18T23:28:40.469Z,16.78
2018-04-18T23:31:11.430Z,16.72
2018-04-18T23:33:42.471Z,16.72
2018-04-18T23:36:13.499Z,16.66
2018-04-18T23:38:44.523Z,16.60
2018-04-18T23:41:15.520Z,16.57
2018-04-18T23:43:46.500Z,16.53
2018-04-18T23:46:17.473Z,16.49
2018-04-18T23:48:48.506Z,16.45
2018-04-18T23:51:19.541Z,16.41
2018-04-18T23:53:50.544Z,16.35
2018-04-18T23:56:21.598Z,16.31
2018-04-18T23:58:52.589Z,16.25
